Tuesday, November 21, 2017, 3:46 PM GMT
Back to Local

CYYG, Charlottetown, P. E. I.

Location: , , Canada Lat: 46.283
Local Time: 3:46 PM GMT (15:46 GMT) Lon: -63.133
Time Zone: GMT Elev: 157 ft

Show me the last for .
Show Coded

Time T Td Feel RH Dir Speed Gust Alt SLP Vis Weather Sky Remarks
2017-11-21 15:00 25 14 10 62 250° 15 22 30.04 30.05 15 FEW018 FEW250 None
2017-11-21 14:00 23 14 9 67 250° 12 18 30.03 30.04 15 FEW018 None
2017-11-21 13:00 23 14 6 67 260° 20 26 30.00 30.02 15 FEW018 None
2017-11-21 12:00 21 14 4 73 270° 15 25 29.97 29.99 15 FEW018 None
2017-11-21 11:00 19 12 5 73 260° 16 - 29.93 29.95 15 FEW018 None
2017-11-21 10:00 21 14 5 73 260° 17 23 29.91 29.92 15 SCT018 None
2017-11-21 09:00 21 12 6 67 280° 13 20 29.87 29.89 15 SCT022 None
2017-11-21 08:00 21 12 4 67 270° 17 28 29.84 29.85 15 SCT025 None
2017-11-21 07:00 23 12 7 62 290° 13 23 29.81 29.82 15 SCT025 SCT140 SCT200 None
2017-11-21 06:00 23 12 8 62 290° 14 22 29.78 29.79 15 SCT025 SCT120 SCT200 None
2017-11-21 05:00 23 12 6 62 280° 16 29 29.74 29.75 15 SCT030 SCT120 BKN200 None
2017-11-21 04:00 25 12 10 58 270° 15 23 29.72 29.73 15 BKN030 BKN120 BKN200 None
2017-11-21 03:00 25 12 8 58 280° 17 28 29.69 29.70 15 SCT030 SCT120 None
2017-11-21 02:00 27 14 11 58 290° 17 25 29.66 29.67 15 SCT035 BKN120 None
2017-11-21 01:00 28 16 13 58 280° 17 29 29.64 29.65 15 BKN038 BKN120 None
2017-11-21 00:00 30 16 15 54 270° 18 31 29.62 29.63 15 BKN040 BKN080 None
2017-11-20 23:00 30 18 16 58 270° 16 26 29.59 29.60 15 BKN044 BKN078 None
2017-11-20 22:00 30 18 17 58 270° 13 23 29.57 29.58 15 BKN043 BKN075 None
2017-11-20 21:44 32 18 19 54 280° 13 23 29.57 29.58 15 BKN040 BKN075 None
2017-11-20 21:21 32 19 19 59 250° 18 25 29.55 29.56 15 -SHSN OVC035 None
2017-11-20 21:00 32 19 24 59 260° 9 - 29.55 29.56 15 BKN035 None
2017-11-20 20:00 30 19 18 63 250° 12 18 29.52 29.53 15 BKN035 None
2017-11-20 19:00 30 19 16 63 260° 13 26 29.50 29.51 15 OVC032 None
2017-11-20 18:00 32 19 18 59 260° 20 26 29.48 29.49 15 OVC030 None
2017-11-20 17:00 32 21 19 63 240° 17 25 29.47 29.48 15 OVC029 None
2017-11-20 16:00 32 21 18 63 250° 21 26 29.47 29.48 15 OVC028 None

Support USWX by starting your Amazon purchase here.